createdAt,value
2023-04-12T00:01:07.311Z,6.7
2023-04-12T00:07:00.172Z,6.7
2023-04-12T00:12:51.179Z,6.6
2023-04-12T00:18:28.318Z,6.6
2023-04-12T00:24:19.765Z,6.6
2023-04-12T00:30:10.216Z,6.6
2023-04-12T00:36:02.628Z,6.6
2023-04-12T00:41:38.578Z,6.6
2023-04-12T00:47:14.450Z,6.7
2023-04-12T00:52:50.938Z,6.7
2023-04-12T00:58:26.901Z,6.8
2023-04-12T01:04:03.886Z,6.7
2023-04-12T01:09:55.996Z,6.8
2023-04-12T01:15:47.180Z,6.8
2023-04-12T01:21:23.108Z,6.7
2023-04-12T01:27:14.540Z,6.7
2023-04-12T01:32:19.115Z,6.7
2023-04-12T01:37:55.615Z,6.6
2023-04-12T01:43:31.857Z,6.6
2023-04-12T01:49:07.460Z,6.6
2023-04-12T01:54:43.928Z,6.6
2023-04-12T02:00:22.022Z,6.5
2023-04-12T02:06:00.277Z,6.4
2023-04-12T02:11:36.295Z,6.3
2023-04-12T02:17:13.171Z,6.2
2023-04-12T02:22:48.273Z,6.3
2023-04-12T02:28:23.727Z,6.3
2023-04-12T02:33:29.195Z,6.3
2023-04-12T02:39:04.924Z,6.3
2023-04-12T02:44:26.067Z,6.2
2023-04-12T02:49:48.273Z,6.2
2023-04-12T02:55:24.362Z,6.2
2023-04-12T03:01:00.609Z,6.3
2023-04-12T03:06:38.817Z,6.3
2023-04-12T03:12:14.291Z,6.3
2023-04-12T03:17:51.153Z,6.4
2023-04-12T03:23:27.607Z,6.4
2023-04-12T03:29:03.183Z,6.5
2023-04-12T03:34:39.108Z,6.6
2023-04-12T03:40:15.769Z,6.7
2023-04-12T03:45:54.682Z,6.7
2023-04-12T03:51:43.250Z,6.8
2023-04-12T03:57:20.382Z,6.8
2023-04-12T04:02:56.889Z,6.9
2023-04-12T04:08:35.609Z,6.9
2023-04-12T04:14:12.425Z,6.9
2023-04-12T04:19:48.446Z,7
2023-04-12T04:25:08.970Z,7.1
2023-04-12T04:30:44.911Z,7.1
2023-04-12T04:36:21.314Z,7.2
2023-04-12T04:41:57.281Z,7.3
2023-04-12T04:47:33.507Z,7.3
2023-04-12T04:53:09.310Z,7.4
2023-04-12T04:58:48.432Z,7.6
2023-04-12T05:04:27.587Z,7.8
2023-04-12T05:10:19.361Z,7.9
2023-04-12T05:16:17.261Z,8.2
2023-04-12T05:21:53.811Z,8.6
2023-04-12T05:27:29.727Z,9.3
2023-04-12T05:33:05.417Z,10
2023-04-12T05:38:41.010Z,10.4
2023-04-12T05:44:16.833Z,10.7
2023-04-12T05:49:53.761Z,10.9
2023-04-12T05:55:39.002Z,11
2023-04-12T06:01:15.713Z,11.1
2023-04-12T06:07:08.660Z,11.1
2023-04-12T06:12:44.587Z,11.3
2023-04-12T06:18:20.506Z,11.6
2023-04-12T06:23:56.571Z,11.8
2023-04-12T06:29:32.920Z,12
2023-04-12T06:35:09.162Z,12.5
2023-04-12T06:40:45.558Z,13.6
2023-04-12T06:46:21.812Z,15.1
2023-04-12T06:51:58.657Z,16.4
2023-04-12T07:02:42.828Z,18.3
2023-04-12T07:08:12.761Z,27.9
2023-04-12T07:13:44.801Z,38.1
2023-04-12T07:19:22.335Z,46.1
2023-04-12T07:24:42.363Z,48.6
2023-04-12T07:30:18.771Z,51
2023-04-12T07:36:12.102Z,52.6
2023-04-12T07:41:49.539Z,48.9
2023-04-12T07:47:14.467Z,41.1
2023-04-12T07:52:51.408Z,46.7
2023-04-12T07:58:29.762Z,50.3
2023-04-12T08:04:09.889Z,50.9
2023-04-12T08:09:47.268Z,40.3
2023-04-12T08:15:23.255Z,41.6
2023-04-12T08:21:00.082Z,52.5
2023-04-12T08:26:36.999Z,55.4
2023-04-12T08:32:13.091Z,45.4
2023-04-12T08:38:07.006Z,46.3
2023-04-12T08:44:14.590Z,48.3
2023-04-12T08:50:05.533Z,49.6
2023-04-12T08:55:57.524Z,51.4
2023-04-12T09:01:50.431Z,52.7
2023-04-12T09:07:45.706Z,54.1
2023-04-12T09:13:08.834Z,53.1
2023-04-12T09:19:02.128Z,53.8
2023-04-12T09:24:37.414Z,55.6
2023-04-12T09:30:29.321Z,57.4
2023-04-12T09:42:01.334Z,59.8
2023-04-12T09:48:09.103Z,60.6
2023-04-12T09:54:01.641Z,61.5
2023-04-12T09:59:54.052Z,61.7
2023-04-12T10:05:51.158Z,62.4
2023-04-12T10:11:45.786Z,62.8
2023-04-12T10:17:24.655Z,63.3
2023-04-12T10:23:20.286Z,64.4
2023-04-12T10:29:12.857Z,64.4
2023-04-12T10:35:04.749Z,64.3
2023-04-12T10:40:57.646Z,64.6
2023-04-12T10:46:49.361Z,64.8
2023-04-12T10:52:40.999Z,64.8
2023-04-12T10:58:33.736Z,65.2
2023-04-12T11:04:21.956Z,65.4
2023-04-12T11:10:25.912Z,65
2023-04-12T11:16:18.117Z,65
2023-04-12T11:22:11.403Z,65.1
2023-04-12T11:27:47.885Z,65.1
2023-04-12T11:33:52.746Z,65
2023-04-12T11:39:46.991Z,64.8
2023-04-12T11:45:52.046Z,63.8
2023-04-12T11:51:57.774Z,70.4
2023-04-12T11:57:34.624Z,73.8
2023-04-12T12:03:43.773Z,63.4
2023-04-12T12:09:39.869Z,65.9
2023-04-12T12:15:55.089Z,67.6
2023-04-12T12:21:47.204Z,69.9
2023-04-12T12:27:54.825Z,72.3
2023-04-12T12:34:03.755Z,70.8
2023-04-12T12:40:01.529Z,61.1
2023-04-12T12:45:53.468Z,64.1
2023-04-12T12:52:10.268Z,67
2023-04-12T12:58:18.677Z,68.1
2023-04-12T13:04:14.317Z,68.6
2023-04-12T13:10:07.715Z,68.4
2023-04-12T13:16:12.493Z,67.7
2023-04-12T13:22:06.671Z,66.8
2023-04-12T13:27:58.987Z,65.4
2023-04-12T13:33:38.653Z,64.3
2023-04-12T13:39:33.053Z,62.5
2023-04-12T13:45:24.896Z,61.2
2023-04-12T13:51:18.282Z,59.4
2023-04-12T13:57:10.398Z,57.8
2023-04-12T14:03:05.680Z,55.9
2023-04-12T14:08:57.756Z,54.2
2023-04-12T14:20:28.214Z,50.5
2023-04-12T14:26:20.023Z,48.6
2023-04-12T14:32:12.307Z,46.7
2023-04-12T14:38:06.405Z,44.6
2023-04-12T14:43:59.159Z,42.5
2023-04-12T14:49:52.518Z,40.5
2023-04-12T14:55:44.913Z,38.6
2023-04-12T15:01:43.996Z,36.6
2023-04-12T15:07:39.246Z,34.8
2023-04-12T15:13:34.168Z,32.9
2023-04-12T15:19:35.339Z,31.1
2023-04-12T15:25:27.203Z,29.4
2023-04-12T15:31:20.105Z,28
2023-04-12T15:36:57.480Z,26.6
2023-04-12T15:42:52.828Z,25.3
2023-04-12T15:48:55.869Z,24.1
2023-04-12T15:54:46.698Z,22.9
2023-04-12T16:00:40.616Z,22
2023-04-12T16:06:35.912Z,21
2023-04-12T16:12:11.303Z,20.2
2023-04-12T16:18:03.117Z,19.3
2023-04-12T16:23:39.923Z,18.4
2023-04-12T16:29:31.537Z,17.8
2023-04-12T16:41:02.879Z,16.4
2023-04-12T16:46:54.411Z,15.7
2023-04-12T16:52:49.254Z,15.1
2023-04-12T16:58:41.354Z,14.6
2023-04-12T17:04:33.931Z,13.9
2023-04-12T17:10:26.260Z,13.4
2023-04-12T17:16:18.520Z,12.8
2023-04-12T17:22:11.523Z,12.3
2023-04-12T17:28:04.793Z,11.7
2023-04-12T17:33:57.684Z,11.1
2023-04-12T17:39:36.445Z,10.7
2023-04-12T17:45:29.075Z,10.3
2023-04-12T17:51:21.690Z,9.9
2023-04-12T17:57:12.730Z,9.6
2023-04-12T18:03:06.096Z,9.3
2023-04-12T18:08:59.525Z,9.1
2023-04-12T18:14:51.304Z,8.8
2023-04-12T18:20:44.018Z,8.6
2023-04-12T18:26:38.292Z,8.4
2023-04-12T18:32:30.189Z,8.1
2023-04-12T18:38:22.732Z,7.8
2023-04-12T18:44:15.024Z,7.6
2023-04-12T18:50:06.705Z,7.4
2023-04-12T18:55:45.576Z,7.1
2023-04-12T19:01:59.152Z,6.9
2023-04-12T19:07:53.210Z,6.8
2023-04-12T19:13:46.793Z,6.7
2023-04-12T19:19:39.818Z,6.6
2023-04-12T19:25:35.947Z,6.6
2023-04-12T19:31:29.049Z,6.6
2023-04-12T19:37:25.904Z,6.6
2023-04-12T19:43:21.209Z,6.5
2023-04-12T19:49:15.230Z,6.4
2023-04-12T19:55:09.076Z,6.3
2023-04-12T20:01:01.496Z,6.2
2023-04-12T20:06:55.717Z,6.1
2023-04-12T20:12:48.676Z,5.9
2023-04-12T20:18:26.278Z,5.8
2023-04-12T20:24:18.915Z,5.8
2023-04-12T20:30:11.214Z,5.7
2023-04-12T20:36:03.069Z,5.6
2023-04-12T20:41:55.188Z,5.6
2023-04-12T20:47:48.854Z,5.6
2023-04-12T20:53:41.194Z,5.6
2023-04-12T20:59:35.671Z,5.6
2023-04-12T21:07:07.090Z,5.4
2023-04-12T21:12:42.840Z,5.3
2023-04-12T21:18:34.464Z,5.1
2023-04-12T21:24:25.318Z,4.9
2023-04-12T21:30:16.710Z,4.7
2023-04-12T21:36:08.614Z,4.4
2023-04-12T21:42:00.014Z,4.3
2023-04-12T21:47:51.813Z,4
2023-04-12T21:53:46.989Z,3.8
2023-04-12T21:59:40.956Z,3.6
2023-04-12T22:05:18.173Z,3.3
2023-04-12T22:11:06.824Z,3.1
2023-04-12T22:16:58.736Z,3
2023-04-12T22:22:34.582Z,2.9
2023-04-12T22:28:11.618Z,2.8
2023-04-12T22:33:48.320Z,2.7
2023-04-12T22:39:53.890Z,2.6
2023-04-12T22:45:45.387Z,2.6
2023-04-12T22:51:37.145Z,2.6
2023-04-12T22:57:28.450Z,2.6
2023-04-12T23:03:24.545Z,2.5
2023-04-12T23:09:15.623Z,2.5
2023-04-12T23:14:51.146Z,2.5
2023-04-12T23:20:43.401Z,2.4
2023-04-12T23:26:35.068Z,2.3
2023-04-12T23:32:11.796Z,2.1
2023-04-12T23:37:47.887Z,1.8
2023-04-12T23:43:38.838Z,1.6
2023-04-12T23:49:30.158Z,1.2
2023-04-12T23:55:21.999Z,0.9
